Time;durP1;ratioP1;P1;durP2;ratioP2;P2;SDS_P1;SDS_P2;PMS_P1;PMS_P2;Temp;Humidity;BMP_temperature;BMP_pressure;BME280_temperature;BME280_humidity;BME280_pressure;Samples;Min_cycle;Max_cycle;Signal;HPM_P1;HPM_P2
2022/06/02 00:00:24;;;;;;;;;;;7.90;99.90;;;;;;5076456;28;19921;-70
2022/06/02 00:02:52;;;;;;;;;;;7.80;99.90;;;;;;5082850;28;20027;-70
2022/06/02 00:05:50;;;;;;;;;;;7.80;99.90;;;;;;5085074;28;19926;-70
2022/06/02 00:08:22;;;;;;;;;;;7.80;99.90;;;;;;5082783;28;19979;-70
2022/06/02 00:11:14;;;;;;;;;;;7.80;99.90;;;;;;5081565;28;20374;-70
2022/06/02 00:13:48;;;;;;;;;;;7.80;99.90;;;;;;5079573;28;20393;-70
2022/06/02 00:16:16;;;;;;;;;;;7.80;99.90;;;;;;5083664;28;19920;-70
2022/06/02 00:18:45;;;;;;;;;;;7.80;99.90;;;;;;5081551;28;20492;-71
2022/06/02 00:21:13;;;;;;;;;;;7.80;99.90;;;;;;5083595;28;20019;-70
2022/06/02 00:23:39;;;;;;;;;;;7.70;99.90;;;;;;5087706;28;19924;-70
2022/06/02 00:26:20;;;;;;;;;;;7.60;99.90;;;;;;5086983;28;19920;-70
2022/06/02 00:28:48;;;;;;;;;;;7.50;99.90;;;;;;5080724;28;19927;-71
2022/06/02 00:31:27;;;;;;;;;;;7.40;99.90;;;;;;5117056;27;19928;-71
2022/06/02 00:34:01;;;;;;;;;;;7.30;99.90;;;;;;5076510;28;19929;-71
2022/06/02 00:36:37;;;;;;;;;;;7.20;99.90;;;;;;5109107;27;19920;-71
2022/06/02 00:39:03;;;;;;;;;;;7.20;99.90;;;;;;5079908;28;19931;-71
2022/06/02 00:41:46;;;;;;;;;;;7.10;99.90;;;;;;5111682;27;19924;-71
2022/06/02 00:44:30;;;;;;;;;;;7.10;99.90;;;;;;5085108;28;19924;-71
2022/06/02 00:47:02;;;;;;;;;;;7.10;99.90;;;;;;5083487;28;20347;-71
2022/06/02 00:49:46;;;;;;;;;;;7.10;99.90;;;;;;5077758;28;20374;-72
2022/06/02 00:52:11;;;;;;;;;;;7.20;99.90;;;;;;5082616;28;19990;-72
2022/06/02 00:57:41;;;;;;;;;;;7.10;99.90;;;;;;5081188;28;20274;-73
2022/06/02 01:00:12;;;;;;;;;;;7.00;99.90;;;;;;5070357;28;20483;-74
2022/06/02 01:02:58;;;;;;;;;;;6.90;99.90;;;;;;5086275;28;19927;-73
2022/06/02 01:05:42;;;;;;;;;;;6.90;99.90;;;;;;5069955;28;19923;-73
2022/06/02 01:08:23;;;;;;;;;;;6.90;99.90;;;;;;5114429;27;20375;-73
2022/06/02 01:10:54;;;;;;;;;;;6.90;99.90;;;;;;5080952;28;19924;-73
2022/06/02 01:13:39;;;;;;;;;;;6.80;99.90;;;;;;5062362;28;19938;-73
2022/06/02 01:16:11;;;;;;;;;;;6.80;99.90;;;;;;5086117;28;20014;-73
2022/06/02 01:19:12;;;;;;;;;;;6.70;99.90;;;;;;5078616;28;19923;-73
2022/06/02 01:21:51;;;;;;;;;;;6.70;99.90;;;;;;5043266;28;20446;-73
2022/06/02 01:24:26;;;;;;;;;;;6.60;99.90;;;;;;5077809;28;20315;-73
2022/06/02 01:26:54;;;;;;;;;;;6.60;99.90;;;;;;5080842;28;20415;-73
2022/06/02 01:29:35;;;;;;;;;;;6.60;99.90;;;;;;5089870;28;19928;-72
2022/06/02 01:32:07;;;;;;;;;;;6.50;99.90;;;;;;5083944;28;21710;-72
2022/06/02 01:34:36;;;;;;;;;;;6.50;99.90;;;;;;5081597;28;20336;-72
2022/06/02 01:37:16;;;;;;;;;;;6.40;99.90;;;;;;5099691;27;19924;-72
2022/06/02 01:40:02;;;;;;;;;;;6.50;99.90;;;;;;5077934;28;20287;-72
2022/06/02 01:42:28;;;;;;;;;;;6.60;99.90;;;;;;5080413;28;20323;-72
2022/06/02 01:45:09;;;;;;;;;;;6.70;99.90;;;;;;5081789;28;20019;-73
2022/06/02 01:47:36;;;;;;;;;;;6.70;99.90;;;;;;5080691;28;19928;-72
2022/06/02 01:50:07;;;;;;;;;;;6.70;99.90;;;;;;5084289;28;19919;-72
2022/06/02 01:52:42;;;;;;;;;;;6.70;99.90;;;;;;5082886;28;19982;-72
2022/06/02 01:55:10;;;;;;;;;;;6.70;99.90;;;;;;5084521;28;20038;-71
2022/06/02 01:57:45;;;;;;;;;;;6.70;99.90;;;;;;5079557;28;19966;-71
2022/06/02 02:00:12;;;;;;;;;;;6.80;99.90;;;;;;5081357;28;19924;-72
2022/06/02 02:02:57;;;;;;;;;;;6.90;99.90;;;;;;5082897;28;19977;-72
2022/06/02 02:05:29;;;;;;;;;;;7.10;99.90;;;;;;5062202;28;19938;-72
2022/06/02 02:07:54;;;;;;;;;;;7.20;99.90;;;;;;5077022;28;19924;-72
2022/06/02 02:10:23;;;;;;;;;;;7.10;99.90;;;;;;5089890;28;19926;-72
2022/06/02 02:13:07;;;;;;;;;;;6.90;99.90;;;;;;5078187;28;20313;-71
2022/06/02 02:15:42;;;;;;;;;;;6.80;99.90;;;;;;5061696;28;19924;-71
2022/06/02 02:18:14;;;;;;;;;;;6.70;99.90;;;;;;5079052;28;19973;-71
2022/06/02 02:20:51;;;;;;;;;;;6.70;99.90;;;;;;5078739;28;20381;-71
2022/06/02 02:23:30;;;;;;;;;;;6.60;99.90;;;;;;5078403;28;19924;-71
2022/06/02 02:26:03;;;;;;;;;;;6.60;99.90;;;;;;5080160;28;19928;-71
2022/06/02 02:28:41;;;;;;;;;;;6.50;99.90;;;;;;5114200;27;20271;-71
2022/06/02 02:31:23;;;;;;;;;;;6.40;99.90;;;;;;5080130;28;19972;-71
2022/06/02 02:34:00;;;;;;;;;;;6.30;99.90;;;;;;5078005;28;20451;-71
2022/06/02 02:36:30;;;;;;;;;;;6.20;99.90;;;;;;5078233;28;19920;-71
2022/06/02 02:39:16;;;;;;;;;;;6.20;99.90;;;;;;5076752;28;19930;-70
2022/06/02 02:41:46;;;;;;;;;;;6.20;99.90;;;;;;5074463;28;19924;-70
2022/06/02 02:44:15;;;;;;;;;;;6.20;99.90;;;;;;5078773;28;19924;-70
2022/06/02 02:46:59;;;;;;;;;;;6.10;99.90;;;;;;5108980;27;20022;-70
2022/06/02 02:49:37;;;;;;;;;;;6.20;99.90;;;;;;5075011;28;19920;-70
2022/06/02 02:52:13;;;;;;;;;;;6.20;99.90;;;;;;5111671;27;19963;-70
2022/06/02 02:54:44;;;;;;;;;;;6.20;99.90;;;;;;5078590;28;19928;-70
2022/06/02 02:57:26;;;;;;;;;;;6.10;99.90;;;;;;5083006;28;20375;-70
2022/06/02 03:00:09;;;;;;;;;;;6.10;99.90;;;;;;5079684;28;19924;-71
2022/06/02 03:02:49;;;;;;;;;;;6.10;99.90;;;;;;5076869;28;19927;-71
2022/06/02 03:05:19;;;;;;;;;;;6.20;99.90;;;;;;5083060;28;19927;-70
2022/06/02 03:07:44;;;;;;;;;;;6.20;99.90;;;;;;5115312;27;19920;-70
2022/06/02 03:10:18;;;;;;;;;;;6.10;99.90;;;;;;5082619;28;19920;-70
2022/06/02 03:12:50;;;;;;;;;;;6.10;99.90;;;;;;5077974;28;20383;-70
2022/06/02 03:15:25;;;;;;;;;;;6.00;99.90;;;;;;5082527;28;19928;-70
2022/06/02 03:18:10;;;;;;;;;;;5.80;99.90;;;;;;5077145;28;19921;-70
2022/06/02 03:21:02;;;;;;;;;;;5.70;99.90;;;;;;5064089;28;19921;-70
2022/06/02 03:23:35;;;;;;;;;;;5.60;99.90;;;;;;5059683;28;20002;-71
2022/06/02 03:26:07;;;;;;;;;;;5.50;99.90;;;;;;5078636;28;20003;-71
2022/06/02 03:28:40;;;;;;;;;;;5.50;99.90;;;;;;5079740;28;19920;-71
2022/06/02 03:31:12;;;;;;;;;;;5.40;99.90;;;;;;5082382;28;20023;-71
2022/06/02 03:33:37;;;;;;;;;;;5.50;99.90;;;;;;5084271;28;20441;-71
2022/06/02 03:36:22;;;;;;;;;;;5.50;99.90;;;;;;5084325;28;19920;-71
2022/06/02 03:38:57;;;;;;;;;;;5.40;99.90;;;;;;5079313;28;20039;-71
2022/06/02 03:41:28;;;;;;;;;;;5.50;99.90;;;;;;5083347;28;19983;-71
2022/06/02 03:44:18;;;;;;;;;;;5.50;99.90;;;;;;5086639;28;19964;-71
2022/06/02 03:47:04;;;;;;;;;;;5.50;99.90;;;;;;5082550;28;19982;-71
2022/06/02 03:49:48;;;;;;;;;;;5.60;99.90;;;;;;5083516;28;19974;-71
2022/06/02 03:52:14;;;;;;;;;;;5.60;99.90;;;;;;5082052;28;19977;-71
2022/06/02 03:54:48;;;;;;;;;;;5.60;99.90;;;;;;5086926;28;19928;-71
2022/06/02 03:57:14;;;;;;;;;;;5.60;99.90;;;;;;5116768;27;19927;-71
2022/06/02 03:59:58;;;;;;;;;;;5.70;99.90;;;;;;5086256;28;20018;-71
2022/06/02 04:02:50;;;;;;;;;;;5.70;99.90;;;;;;5083744;28;19920;-71
2022/06/02 04:05:27;;;;;;;;;;;5.80;99.90;;;;;;5115888;27;19928;-70
2022/06/02 04:07:53;;;;;;;;;;;5.80;99.90;;;;;;5084315;28;19974;-69
2022/06/02 04:10:29;;;;;;;;;;;5.90;99.90;;;;;;5085880;28;19958;-69
2022/06/02 04:16:11;;;;;;;;;;;6.10;99.90;;;;;;5080890;28;20332;-70
2022/06/02 04:18:45;;;;;;;;;;;6.30;99.90;;;;;;5078933;28;20534;-70
2022/06/02 04:21:30;;;;;;;;;;;6.30;99.90;;;;;;5073210;28;20359;-69
2022/06/02 04:24:17;;;;;;;;;;;6.40;99.90;;;;;;5083664;28;19924;-68
2022/06/02 04:27:06;;;;;;;;;;;6.50;99.90;;;;;;5081294;28;19920;-68
2022/06/02 04:29:45;;;;;;;;;;;6.70;99.90;;;;;;5074489;28;20360;-68
2022/06/02 04:32:13;;;;;;;;;;;6.90;99.90;;;;;;5115780;27;20271;-69
2022/06/02 04:34:48;;;;;;;;;;;7.10;99.90;;;;;;5080970;28;19978;-69
2022/06/02 04:37:22;;;;;;;;;;;7.20;99.90;;;;;;5093018;28;19981;-68
2022/06/02 04:39:48;;;;;;;;;;;7.30;99.90;;;;;;5091327;28;19927;-68
2022/06/02 04:42:27;;;;;;;;;;;7.40;99.90;;;;;;5112374;28;19920;-68
2022/06/02 04:45:01;;;;;;;;;;;7.60;99.90;;;;;;5084973;28;19974;-70
2022/06/02 04:50:53;;;;;;;;;;;7.70;99.90;;;;;;5107564;28;20328;-73
2022/06/02 04:53:31;;;;;;;;;;;7.80;99.90;;;;;;5115434;28;20317;-73
2022/06/02 04:55:56;;;;;;;;;;;7.90;99.90;;;;;;5115340;28;19927;-74
2022/06/02 04:58:40;;;;;;;;;;;8.00;99.90;;;;;;5115351;28;20003;-74
2022/06/02 05:01:06;;;;;;;;;;;8.10;99.90;;;;;;5107770;28;20006;-75
2022/06/02 05:03:50;;;;;;;;;;;8.20;99.90;;;;;;5100571;28;20078;-74
2022/06/02 05:06:23;;;;;;;;;;;8.30;99.90;;;;;;5089675;28;19920;-74
2022/06/02 05:09:08;;;;;;;;;;;8.40;99.90;;;;;;5085444;28;19942;-74
2022/06/02 05:11:48;;;;;;;;;;;8.60;99.90;;;;;;5107656;27;19924;-73
2022/06/02 05:14:18;;;;;;;;;;;8.60;99.90;;;;;;5084536;28;20320;-73
2022/06/02 05:16:48;;;;;;;;;;;8.80;99.90;;;;;;5093644;28;20403;-73
2022/06/02 05:19:17;;;;;;;;;;;8.80;99.90;;;;;;5112932;27;19920;-72
2022/06/02 05:21:46;;;;;;;;;;;9.00;99.90;;;;;;5082899;28;19920;-71
2022/06/02 05:24:21;;;;;;;;;;;9.10;99.90;;;;;;5077949;28;20599;-71
2022/06/02 05:26:55;;;;;;;;;;;9.20;99.90;;;;;;5057181;28;20268;-71
2022/06/02 05:29:24;;;;;;;;;;;9.40;99.90;;;;;;5085634;28;20014;-71
2022/06/02 05:32:09;;;;;;;;;;;9.50;99.90;;;;;;5081339;28;19948;-72
2022/06/02 05:35:04;;;;;;;;;;;9.60;99.90;;;;;;5090497;28;20011;-72
2022/06/02 05:37:52;;;;;;;;;;;9.80;99.90;;;;;;5036502;28;20007;-71
2022/06/02 05:40:28;;;;;;;;;;;10.00;99.90;;;;;;5075967;28;20298;-70
2022/06/02 05:43:17;;;;;;;;;;;10.20;99.90;;;;;;5081566;28;19931;-72
2022/06/02 05:46:01;;;;;;;;;;;10.40;99.90;;;;;;5087682;28;19927;-72
2022/06/02 05:48:40;;;;;;;;;;;10.50;99.90;;;;;;5086733;28;19921;-69
2022/06/02 05:51:14;;;;;;;;;;;10.60;99.90;;;;;;5088624;28;20010;-75
2022/06/02 05:53:45;;;;;;;;;;;10.80;99.90;;;;;;5100514;28;19977;-72
2022/06/02 05:56:19;;;;;;;;;;;11.00;99.90;;;;;;5082599;28;20224;-73
2022/06/02 05:59:03;;;;;;;;;;;11.10;99.90;;;;;;5083801;28;20011;-73
2022/06/02 06:01:32;;;;;;;;;;;11.30;99.90;;;;;;5103833;28;20030;-74
2022/06/02 06:04:27;;;;;;;;;;;11.50;99.90;;;;;;5104169;28;19974;-70
2022/06/02 06:07:00;;;;;;;;;;;11.60;99.90;;;;;;5039924;27;19970;-69
2022/06/02 06:09:45;;;;;;;;;;;11.70;99.90;;;;;;5066954;28;19932;-77
2022/06/02 06:12:16;;;;;;;;;;;11.70;99.90;;;;;;5092078;28;19924;-72
2022/06/02 06:15:06;;;;;;;;;;;11.80;99.90;;;;;;5090670;28;20363;-71
2022/06/02 06:17:39;;;;;;;;;;;12.00;99.90;;;;;;5088001;28;20374;-73
2022/06/02 06:20:12;;;;;;;;;;;12.10;99.90;;;;;;5103260;28;19934;-73
2022/06/02 06:22:50;;;;;;;;;;;12.20;99.90;;;;;;5097141;28;20450;-71
2022/06/02 06:25:22;;;;;;;;;;;12.20;99.90;;;;;;5070974;28;20202;-75
2022/06/02 06:27:55;;;;;;;;;;;12.30;99.90;;;;;;5079771;28;19999;-76
2022/06/02 06:30:29;;;;;;;;;;;12.40;99.90;;;;;;5076509;28;20357;-72
2022/06/02 06:33:04;;;;;;;;;;;12.50;99.90;;;;;;5073447;28;20366;-77
2022/06/02 06:35:35;;;;;;;;;;;12.50;99.90;;;;;;5084200;28;20397;-73
2022/06/02 06:38:01;;;;;;;;;;;12.60;99.90;;;;;;5088842;28;19993;-73
2022/06/02 06:40:39;;;;;;;;;;;12.70;99.90;;;;;;5111100;27;19920;-74
2022/06/02 06:43:21;;;;;;;;;;;12.80;99.90;;;;;;5078595;28;19928;-73
2022/06/02 06:46:00;;;;;;;;;;;12.90;99.90;;;;;;5086589;28;20426;-74
2022/06/02 06:48:32;;;;;;;;;;;13.00;99.90;;;;;;5065444;28;20240;-74
2022/06/02 06:51:03;;;;;;;;;;;13.10;99.90;;;;;;5084531;28;19920;-74
2022/06/02 06:53:45;;;;;;;;;;;13.20;99.90;;;;;;5086734;28;19935;-74
2022/06/02 06:56:32;;;;;;;;;;;13.30;99.90;;;;;;5086864;28;20635;-71
2022/06/02 06:59:03;;;;;;;;;;;13.50;99.90;;;;;;5109153;27;19974;-74
2022/06/02 07:01:41;;;;;;;;;;;13.60;99.90;;;;;;5094441;28;19997;-75
2022/06/02 07:04:07;;;;;;;;;;;13.70;99.90;;;;;;5102175;28;19920;-77
2022/06/02 07:06:48;;;;;;;;;;;13.70;99.90;;;;;;5090320;28;20370;-80
2022/06/02 07:09:23;;;;;;;;;;;13.60;99.90;;;;;;5097971;28;20379;-74
2022/06/02 07:15:03;;;;;;;;;;;13.60;99.90;;;;;;5087010;28;20307;-74
2022/06/02 07:17:35;;;;;;;;;;;13.70;99.90;;;;;;5106529;28;20445;-73
2022/06/02 07:20:08;;;;;;;;;;;13.80;99.90;;;;;;5112692;28;19921;-74
2022/06/02 07:22:42;;;;;;;;;;;13.70;99.90;;;;;;5092613;28;20390;-73
2022/06/02 07:25:26;;;;;;;;;;;13.50;99.90;;;;;;5104258;28;20005;-76
2022/06/02 07:28:04;;;;;;;;;;;13.40;99.90;;;;;;5100579;28;19945;-76
2022/06/02 07:30:30;;;;;;;;;;;13.50;99.90;;;;;;5096021;28;19928;-74
2022/06/02 07:32:55;;;;;;;;;;;13.70;99.90;;;;;;5076189;28;20458;-72
2022/06/02 07:35:44;;;;;;;;;;;13.80;99.90;;;;;;5100855;28;19923;-75
2022/06/02 07:38:16;;;;;;;;;;;13.90;99.90;;;;;;5108040;28;20431;-76
2022/06/02 07:40:44;;;;;;;;;;;13.90;99.90;;;;;;5104581;28;20294;-72
2022/06/02 07:43:22;;;;;;;;;;;14.10;99.90;;;;;;5107042;28;19942;-75
2022/06/02 07:46:03;;;;;;;;;;;14.30;99.90;;;;;;5083349;28;19919;-74
2022/06/02 07:48:44;;;;;;;;;;;14.40;99.90;;;;;;5097576;28;19927;-75
2022/06/02 07:51:17;;;;;;;;;;;14.30;99.90;;;;;;5093348;28;19924;-75
2022/06/02 07:53:52;;;;;;;;;;;14.10;99.90;;;;;;5090765;28;20027;-74
2022/06/02 07:56:33;;;;;;;;;;;14.00;99.90;;;;;;5080566;28;19920;-75
2022/06/02 07:58:58;;;;;;;;;;;14.10;99.90;;;;;;5089001;28;19924;-74
2022/06/02 08:01:33;;;;;;;;;;;14.30;99.90;;;;;;5101014;28;19924;-77
2022/06/02 08:04:09;;;;;;;;;;;14.30;99.90;;;;;;5108564;28;19921;-72
2022/06/02 08:06:50;;;;;;;;;;;14.30;99.90;;;;;;5089040;28;19926;-72
2022/06/02 08:09:19;;;;;;;;;;;14.30;99.90;;;;;;5083299;28;19920;-76
2022/06/02 08:12:08;;;;;;;;;;;14.20;99.90;;;;;;5103344;28;19927;-73
2022/06/02 08:14:47;;;;;;;;;;;14.10;99.90;;;;;;5091305;28;21173;-76
2022/06/02 08:17:21;;;;;;;;;;;14.30;99.90;;;;;;5082158;28;19923;-77
2022/06/02 08:19:55;;;;;;;;;;;14.50;99.90;;;;;;5089157;28;19921;-77
2022/06/02 08:22:44;;;;;;;;;;;14.70;99.90;;;;;;5092135;28;20371;-75
2022/06/02 08:25:22;;;;;;;;;;;14.80;99.90;;;;;;5104896;27;19974;-77
2022/06/02 08:27:58;;;;;;;;;;;15.00;99.90;;;;;;5107370;27;20422;-76
2022/06/02 08:30:37;;;;;;;;;;;15.10;99.90;;;;;;5099667;28;20271;-74
2022/06/02 08:33:25;;;;;;;;;;;15.10;99.90;;;;;;5089518;28;20647;-75
2022/06/02 08:36:06;;;;;;;;;;;15.10;99.90;;;;;;5076353;28;19931;-75
2022/06/02 08:38:49;;;;;;;;;;;15.00;99.90;;;;;;5087140;28;19967;-78
2022/06/02 08:41:32;;;;;;;;;;;14.80;99.90;;;;;;5090601;28;19950;-72
2022/06/02 08:44:17;;;;;;;;;;;14.60;99.90;;;;;;5075956;28;19920;-72
2022/06/02 08:46:55;;;;;;;;;;;14.60;99.90;;;;;;5083539;28;19925;-73
2022/06/02 08:49:32;;;;;;;;;;;14.80;99.90;;;;;;5086194;28;20363;-77
2022/06/02 08:52:16;;;;;;;;;;;15.10;99.90;;;;;;5090456;28;19920;-75
2022/06/02 08:54:54;;;;;;;;;;;15.40;99.90;;;;;;5073232;28;19938;-73
2022/06/02 08:57:38;;;;;;;;;;;15.60;99.90;;;;;;5090050;28;19935;-73
2022/06/02 09:00:33;;;;;;;;;;;15.60;99.90;;;;;;5109206;28;19919;-76
2022/06/02 09:03:07;;;;;;;;;;;15.30;99.90;;;;;;5046323;28;19925;-76
2022/06/02 09:05:36;;;;;;;;;;;15.20;99.90;;;;;;5091935;28;19920;-76
2022/06/02 09:08:21;;;;;;;;;;;15.30;99.90;;;;;;5090614;28;19928;-73
2022/06/02 09:10:47;;;;;;;;;;;15.40;99.90;;;;;;5085106;28;20386;-73
2022/06/02 09:13:15;;;;;;;;;;;15.50;99.90;;;;;;5091381;28;19920;-75
2022/06/02 09:15:41;;;;;;;;;;;15.60;99.90;;;;;;5090813;28;19947;-73
2022/06/02 09:18:12;;;;;;;;;;;15.70;99.90;;;;;;5090984;28;20359;-72
2022/06/02 09:20:44;;;;;;;;;;;15.90;99.90;;;;;;5090989;28;19966;-77
2022/06/02 09:23:16;;;;;;;;;;;16.20;99.90;;;;;;5091740;28;19966;-76
2022/06/02 09:25:51;;;;;;;;;;;16.40;99.90;;;;;;5074158;28;19975;-74
2022/06/02 09:28:38;;;;;;;;;;;16.40;99.90;;;;;;5104133;28;19969;-76
2022/06/02 09:31:03;;;;;;;;;;;16.20;99.90;;;;;;5082995;28;19924;-75
2022/06/02 09:33:47;;;;;;;;;;;16.00;99.90;;;;;;5091120;28;19934;-72
2022/06/02 09:36:19;;;;;;;;;;;16.00;99.90;;;;;;5090727;28;19920;-73
2022/06/02 09:38:53;;;;;;;;;;;16.10;99.90;;;;;;5071577;28;19924;-75
2022/06/02 09:41:39;;;;;;;;;;;16.00;99.90;;;;;;5088914;28;20268;-75
2022/06/02 09:44:15;;;;;;;;;;;16.10;99.90;;;;;;5091076;28;19924;-76
2022/06/02 09:46:40;;;;;;;;;;;16.20;99.90;;;;;;5124433;27;20030;-77
2022/06/02 09:49:21;;;;;;;;;;;16.10;99.90;;;;;;5089179;28;20239;-78
2022/06/02 09:51:49;;;;;;;;;;;16.10;99.90;;;;;;5073500;28;19962;-78
2022/06/02 09:54:24;;;;;;;;;;;16.10;99.90;;;;;;5089327;28;20023;-77
2022/06/02 09:57:02;;;;;;;;;;;16.10;99.90;;;;;;5080305;28;20102;-73
2022/06/02 09:59:33;;;;;;;;;;;16.40;99.90;;;;;;5115987;27;19931;-73
2022/06/02 10:02:08;;;;;;;;;;;16.60;99.90;;;;;;5090045;28;20401;-79
2022/06/02 10:04:52;;;;;;;;;;;16.60;99.90;;;;;;5089067;28;20014;-76
2022/06/02 10:07:27;;;;;;;;;;;16.50;99.90;;;;;;5086684;28;19932;-73
2022/06/02 10:10:13;;;;;;;;;;;16.60;99.90;;;;;;5083419;28;20112;-74
2022/06/02 10:13:00;;;;;;;;;;;16.80;99.90;;;;;;5077758;28;19924;-80
2022/06/02 10:15:29;;;;;;;;;;;17.10;99.90;;;;;;5082280;28;19932;-79
2022/06/02 10:17:56;;;;;;;;;;;17.40;99.90;;;;;;5070043;28;19971;-76
2022/06/02 10:20:25;;;;;;;;;;;17.50;99.90;;;;;;5070118;28;20007;-71
2022/06/02 10:23:10;;;;;;;;;;;17.70;99.90;;;;;;5072187;28;19928;-76
2022/06/02 10:25:54;;;;;;;;;;;17.70;99.90;;;;;;5069948;28;20032;-74
2022/06/02 10:28:29;;;;;;;;;;;17.40;99.90;;;;;;5074466;28;19924;-73
2022/06/02 10:30:55;;;;;;;;;;;17.10;99.90;;;;;;5090123;28;19927;-76
2022/06/02 10:33:24;;;;;;;;;;;16.80;99.90;;;;;;5089579;28;20268;-72
2022/06/02 10:36:05;;;;;;;;;;;16.70;99.90;;;;;;5090815;28;19931;-74
2022/06/02 10:38:37;;;;;;;;;;;16.80;99.90;;;;;;5089316;28;20299;-75
2022/06/02 10:41:12;;;;;;;;;;;16.90;99.90;;;;;;5089594;28;21270;-76
2022/06/02 10:43:37;;;;;;;;;;;17.10;99.90;;;;;;5079409;28;19927;-75
2022/06/02 10:46:31;;;;;;;;;;;17.30;99.90;;;;;;5102162;28;20323;-75
2022/06/02 10:49:30;;;;;;;;;;;17.40;99.90;;;;;;5088374;28;19920;-75
2022/06/02 10:52:14;;;;;;;;;;;17.60;99.90;;;;;;5077568;28;20115;-76
2022/06/02 10:55:11;;;;;;;;;;;17.60;99.90;;;;;;5068857;28;20486;-76
2022/06/02 10:57:52;;;;;;;;;;;17.60;99.90;;;;;;5073757;28;19920;-77
2022/06/02 11:00:38;;;;;;;;;;;17.40;99.90;;;;;;5078574;28;19966;-77
2022/06/02 11:03:15;;;;;;;;;;;17.50;99.90;;;;;;5074373;28;19927;-75
2022/06/02 11:06:04;;;;;;;;;;;17.60;99.90;;;;;;5089242;28;20007;-75
2022/06/02 11:08:39;;;;;;;;;;;17.50;99.90;;;;;;5049771;28;19931;-78
2022/06/02 11:11:08;;;;;;;;;;;17.50;99.90;;;;;;5089440;28;20371;-74
2022/06/02 11:13:49;;;;;;;;;;;17.70;99.90;;;;;;5089608;28;20379;-75
2022/06/02 11:16:33;;;;;;;;;;;17.70;99.90;;;;;;5116303;28;19928;-78
2022/06/02 11:19:18;;;;;;;;;;;17.60;99.90;;;;;;5102997;28;19927;-78
2022/06/02 11:22:05;;;;;;;;;;;17.30;99.90;;;;;;5085025;28;19922;-75
2022/06/02 11:24:47;;;;;;;;;;;17.30;99.90;;;;;;5085994;28;20003;-73
2022/06/02 11:27:21;;;;;;;;;;;17.00;99.90;;;;;;5081495;28;19931;-76
2022/06/02 11:29:58;;;;;;;;;;;17.00;99.90;;;;;;5089896;28;20372;-74
2022/06/02 11:32:30;;;;;;;;;;;16.90;99.90;;;;;;5088431;28;19928;-73
2022/06/02 11:35:07;;;;;;;;;;;16.80;99.90;;;;;;5084427;28;20023;-74
2022/06/02 11:37:42;;;;;;;;;;;16.80;99.90;;;;;;5083942;28;19920;-72
2022/06/02 11:40:26;;;;;;;;;;;16.80;99.90;;;;;;5084124;28;20428;-73
2022/06/02 11:42:51;;;;;;;;;;;16.70;99.90;;;;;;5084688;28;20010;-73
2022/06/02 11:45:17;;;;;;;;;;;16.60;99.90;;;;;;5089571;28;20505;-74
2022/06/02 11:48:01;;;;;;;;;;;16.70;99.90;;;;;;5087279;28;19934;-74
2022/06/02 11:50:40;;;;;;;;;;;16.90;99.90;;;;;;5085817;28;20432;-73
2022/06/02 11:53:12;;;;;;;;;;;17.00;99.90;;;;;;5091938;28;19924;-73
2022/06/02 11:55:56;;;;;;;;;;;17.10;99.90;;;;;;5091877;28;20019;-75
2022/06/02 11:58:25;;;;;;;;;;;17.10;99.90;;;;;;5089389;28;19950;-74
2022/06/02 12:01:12;;;;;;;;;;;17.10;99.90;;;;;;5091961;28;19920;-78
2022/06/02 12:03:52;;;;;;;;;;;17.10;99.90;;;;;;5087551;28;19920;-76
2022/06/02 12:06:37;;;;;;;;;;;17.10;99.90;;;;;;5092718;28;19931;-72
2022/06/02 12:09:02;;;;;;;;;;;17.10;99.90;;;;;;5092235;28;19920;-72
2022/06/02 12:12:06;;;;;;;;;;;17.10;99.90;;;;;;5073062;28;19928;-71
2022/06/02 12:14:47;;;;;;;;;;;17.20;99.90;;;;;;5034534;28;19983;-72
2022/06/02 12:17:15;;;;;;;;;;;17.30;99.90;;;;;;5032060;28;19951;-73
2022/06/02 12:19:51;;;;;;;;;;;17.30;99.90;;;;;;5054881;28;20028;-74
2022/06/02 12:22:25;;;;;;;;;;;17.20;99.90;;;;;;5074153;28;19927;-72
2022/06/02 12:24:59;;;;;;;;;;;17.20;99.90;;;;;;5121453;27;19920;-76
2022/06/02 12:27:43;;;;;;;;;;;17.20;99.90;;;;;;5092956;28;19924;-74
2022/06/02 12:30:09;;;;;;;;;;;17.20;99.90;;;;;;5091886;28;19920;-74
2022/06/02 12:32:49;;;;;;;;;;;17.20;99.90;;;;;;5091904;28;19930;-75
2022/06/02 12:35:27;;;;;;;;;;;17.20;99.90;;;;;;5081262;28;19920;-74
2022/06/02 12:37:55;;;;;;;;;;;17.40;99.90;;;;;;5106002;27;19932;-73
2022/06/02 12:40:30;;;;;;;;;;;17.50;99.90;;;;;;5105561;28;20034;-74
2022/06/02 12:43:18;;;;;;;;;;;17.60;99.90;;;;;;5111004;27;20339;-72
2022/06/02 12:45:45;;;;;;;;;;;17.70;99.90;;;;;;5089265;28;19920;-75
2022/06/02 12:48:20;;;;;;;;;;;17.60;99.90;;;;;;5091871;28;19924;-74
2022/06/02 12:51:04;;;;;;;;;;;17.40;99.90;;;;;;5070751;28;19927;-75
2022/06/02 12:53:49;;;;;;;;;;;17.50;99.90;;;;;;5086934;28;19936;-76
2022/06/02 12:56:31;;;;;;;;;;;17.70;99.90;;;;;;5087593;28;19920;-77
2022/06/02 12:59:06;;;;;;;;;;;18.00;99.90;;;;;;5076190;28;19927;-75
2022/06/02 13:01:44;;;;;;;;;;;18.20;99.90;;;;;;5088810;28;19931;-73
2022/06/02 13:04:15;;;;;;;;;;;18.50;99.90;;;;;;5093321;28;19950;-74
2022/06/02 13:06:56;;;;;;;;;;;18.50;99.90;;;;;;5090807;28;19931;-77
2022/06/02 13:09:21;;;;;;;;;;;18.50;99.90;;;;;;5073968;28;19927;-74
2022/06/02 13:11:50;;;;;;;;;;;18.60;99.90;;;;;;5105258;28;19929;-72
2022/06/02 13:14:21;;;;;;;;;;;18.60;99.90;;;;;;5105123;28;19920;-76
2022/06/02 13:17:12;;;;;;;;;;;18.60;99.90;;;;;;5105176;28;19964;-73
2022/06/02 13:19:46;;;;;;;;;;;18.70;99.90;;;;;;5116953;27;19928;-73
2022/06/02 13:22:24;;;;;;;;;;;18.90;99.90;;;;;;5086345;28;20316;-73
2022/06/02 13:25:08;;;;;;;;;;;19.00;99.90;;;;;;5071618;28;19924;-74
2022/06/02 13:27:36;;;;;;;;;;;19.10;99.90;;;;;;5071019;28;20003;-70
2022/06/02 13:30:21;;;;;;;;;;;19.10;99.90;;;;;;5070534;28;20286;-73
2022/06/02 13:33:05;;;;;;;;;;;19.20;99.90;;;;;;5090414;28;19935;-72
2022/06/02 13:35:50;;;;;;;;;;;19.30;99.90;;;;;;5090629;28;19920;-73
2022/06/02 13:38:21;;;;;;;;;;;19.30;99.90;;;;;;5070799;28;19920;-75
2022/06/02 13:40:50;;;;;;;;;;;19.30;99.90;;;;;;5085732;28;20027;-75
2022/06/02 13:43:34;;;;;;;;;;;19.30;99.90;;;;;;5091109;28;19963;-75
2022/06/02 13:46:06;;;;;;;;;;;19.40;99.90;;;;;;5090418;28;20351;-75
2022/06/02 13:48:47;;;;;;;;;;;19.60;99.30;;;;;;5090461;28;19920;-75
2022/06/02 13:51:39;;;;;;;;;;;19.70;99.90;;;;;;5090270;28;20268;-75
2022/06/02 14:00:07;;;;;;;;;;;19.50;99.90;;;;;;5088402;28;20374;-73
2022/06/02 14:02:49;;;;;;;;;;;19.20;99.90;;;;;;5070431;28;19926;-72
2022/06/02 14:05:14;;;;;;;;;;;19.20;99.90;;;;;;5113229;27;19927;-73
2022/06/02 14:07:49;;;;;;;;;;;19.20;99.90;;;;;;5090376;28;19924;-72
2022/06/02 14:10:22;;;;;;;;;;;19.00;99.90;;;;;;5089696;28;19920;-75
2022/06/02 14:12:58;;;;;;;;;;;19.20;99.90;;;;;;5087380;28;19947;-74
2022/06/02 14:15:23;;;;;;;;;;;19.40;99.90;;;;;;5090443;28;19966;-73
2022/06/02 14:18:01;;;;;;;;;;;19.60;99.90;;;;;;5088096;28;19964;-74
2022/06/02 14:20:45;;;;;;;;;;;19.80;99.90;;;;;;5088077;28;19978;-73
2022/06/02 14:23:17;;;;;;;;;;;19.60;99.90;;;;;;5088012;28;20299;-73
2022/06/02 14:25:46;;;;;;;;;;;19.60;99.90;;;;;;5087405;28;19935;-73
2022/06/02 14:28:11;;;;;;;;;;;19.60;99.90;;;;;;5083790;28;21083;-72
2022/06/02 14:30:41;;;;;;;;;;;19.70;99.90;;;;;;5069440;28;19928;-73
2022/06/02 14:33:16;;;;;;;;;;;19.60;99.90;;;;;;5066881;28;19924;-70
2022/06/02 14:35:46;;;;;;;;;;;19.60;99.90;;;;;;5090244;28;19920;-74
2022/06/02 14:38:18;;;;;;;;;;;19.60;99.90;;;;;;5090200;28;19985;-73
2022/06/02 14:40:47;;;;;;;;;;;19.60;99.90;;;;;;5089516;28;19924;-76
2022/06/02 14:43:31;;;;;;;;;;;19.80;99.90;;;;;;5088376;28;20291;-75
2022/06/02 14:45:57;;;;;;;;;;;19.90;99.90;;;;;;5069553;28;19932;-74
2022/06/02 14:48:41;;;;;;;;;;;20.00;99.90;;;;;;5103427;28;20336;-75
2022/06/02 14:51:13;;;;;;;;;;;20.10;99.90;;;;;;5102925;28;20007;-73
2022/06/02 14:53:40;;;;;;;;;;;20.20;99.90;;;;;;5102890;28;19931;-76
2022/06/02 14:56:38;;;;;;;;;;;20.10;99.90;;;;;;5104702;28;19928;-74
2022/06/02 14:59:15;;;;;;;;;;;20.20;99.90;;;;;;5046614;28;19963;-75
2022/06/02 15:01:41;;;;;;;;;;;20.20;99.90;;;;;;5086404;28;19934;-76
2022/06/02 15:04:19;;;;;;;;;;;20.40;99.90;;;;;;5087599;28;19920;-74
2022/06/02 15:07:03;;;;;;;;;;;20.40;99.90;;;;;;5081924;28;19943;-74
2022/06/02 15:09:55;;;;;;;;;;;20.50;99.90;;;;;;5084974;28;19985;-72
2022/06/02 15:12:36;;;;;;;;;;;20.50;99.90;;;;;;5091406;28;19930;-74
2022/06/02 15:15:05;;;;;;;;;;;20.70;99.90;;;;;;5093341;28;20332;-72
2022/06/02 15:17:46;;;;;;;;;;;20.70;99.90;;;;;;5082736;28;19934;-74
2022/06/02 15:20:23;;;;;;;;;;;20.70;99.90;;;;;;5094725;28;19920;-74
2022/06/02 15:22:52;;;;;;;;;;;20.40;99.90;;;;;;5089653;28;19920;-73
2022/06/02 15:25:17;;;;;;;;;;;20.10;97.00;;;;;;5090721;28;19920;-73
2022/06/02 15:27:49;;;;;;;;;;;20.10;99.90;;;;;;5097270;28;20290;-74
2022/06/02 15:30:35;;;;;;;;;;;20.20;99.90;;;;;;5093549;28;19927;-73
2022/06/02 15:33:01;;;;;;;;;;;20.40;96.70;;;;;;5091617;28;20418;-74